Time;durP1;ratioP1;P1;durP2;ratioP2;P2;SDS_P1;SDS_P2;PMS_P1;PMS_P2;Temp;Humidity;BMP_temperature;BMP_pressure;BME280_temperature;BME280_humidity;BME280_pressure;Samples;Min_cycle;Max_cycle;Signal;HPM_P1;HPM_P2
2023/09/16 00:00:37;;;;;;;10.98;4.63;;;14.80;96.70;;;;;;4970719;28;20038;-78
2023/09/16 00:03:05;;;;;;;7.25;5.00;;;14.80;97.80;;;;;;4967776;28;20041;-78
2023/09/16 00:05:31;;;;;;;7.65;5.32;;;14.80;96.70;;;;;;4970939;28;20042;-78
2023/09/16 00:07:56;;;;;;;6.68;4.32;;;14.70;96.90;;;;;;4971906;28;20031;-78
2023/09/16 00:10:22;;;;;;;5.13;4.63;;;14.70;97.40;;;;;;4952206;28;20035;-78
2023/09/16 00:12:47;;;;;;;8.57;4.90;;;14.70;97.40;;;;;;4969778;28;20050;-77
2023/09/16 00:15:13;;;;;;;7.07;4.95;;;14.70;98.30;;;;;;4969812;28;20497;-78
2023/09/16 00:17:39;;;;;;;9.90;4.70;;;14.70;97.80;;;;;;4953392;28;20026;-78
2023/09/16 00:20:14;;;;;;;5.70;4.50;;;14.80;98.20;;;;;;4968579;28;20050;-78
2023/09/16 00:22:41;;;;;;;9.90;5.10;;;14.80;99.90;;;;;;4972198;28;20035;-78
2023/09/16 00:25:08;;;;;;;8.60;4.80;;;14.90;98.30;;;;;;4968325;28;20035;-78
2023/09/16 00:27:34;;;;;;;6.28;4.53;;;14.80;98.10;;;;;;4972154;28;20089;-78
2023/09/16 00:30:00;;;;;;;7.10;5.10;;;14.80;98.10;;;;;;4967404;28;20051;-79
2023/09/16 00:32:28;;;;;;;6.28;5.07;;;14.70;98.40;;;;;;4952041;28;20121;-78
2023/09/16 00:34:53;;;;;;;5.65;4.55;;;14.80;98.80;;;;;;4952096;28;20081;-79
2023/09/16 00:37:19;;;;;;;6.30;5.22;;;14.80;98.90;;;;;;4969741;28;20046;-78
2023/09/16 00:39:44;;;;;;;9.75;5.28;;;14.80;99.30;;;;;;4973033;28;20030;-78
2023/09/16 00:42:10;;;;;;;6.65;4.40;;;14.90;99.90;;;;;;4971953;28;20193;-78
2023/09/16 00:44:36;;;;;;;7.20;4.80;;;14.90;99.90;;;;;;4969977;28;20096;-78
2023/09/16 00:47:02;;;;;;;6.50;4.68;;;14.90;99.50;;;;;;4972643;28;20030;-77
2023/09/16 00:49:30;;;;;;;8.57;5.20;;;15.00;99.70;;;;;;4952696;28;20031;-78
2023/09/16 00:51:58;;;;;;;6.82;4.55;;;15.00;99.90;;;;;;4950097;28;20031;-78
2023/09/16 00:54:24;;;;;;;6.57;4.57;;;15.10;99.60;;;;;;4952143;28;20121;-78
2023/09/16 00:56:50;;;;;;;5.30;4.80;;;15.10;99.50;;;;;;4969172;28;20677;-78
2023/09/16 00:59:15;;;;;;;6.32;4.60;;;15.10;99.00;;;;;;4971333;28;20035;-78
2023/09/16 01:01:41;;;;;;;6.68;4.93;;;15.10;98.70;;;;;;4970221;28;20073;-78
2023/09/16 01:04:07;;;;;;;5.05;4.55;;;15.00;98.30;;;;;;4972970;28;20052;-78
2023/09/16 01:06:32;;;;;;;5.75;4.75;;;15.10;98.50;;;;;;4972143;28;20432;-78
2023/09/16 01:08:58;;;;;;;8.98;5.32;;;15.10;97.60;;;;;;4974029;28;20050;-79
2023/09/16 01:11:24;;;;;;;6.25;5.18;;;15.00;97.50;;;;;;4969946;28;20041;-78
2023/09/16 01:13:50;;;;;;;5.75;5.07;;;15.10;97.30;;;;;;4972934;28;20549;-79
2023/09/16 01:16:33;;;;;;;6.00;5.13;;;15.10;97.70;;;;;;4972186;28;20045;-78
2023/09/16 01:19:25;;;;;;;6.72;4.68;;;15.10;97.30;;;;;;4972427;28;20109;-78
2023/09/16 01:21:50;;;;;;;6.88;4.75;;;15.00;97.50;;;;;;4953908;28;20486;-78
2023/09/16 01:24:17;;;;;;;5.72;4.50;;;15.00;98.10;;;;;;4955914;28;20042;-78
2023/09/16 01:26:42;;;;;;;7.22;4.90;;;15.00;98.10;;;;;;4972482;28;20045;-77
2023/09/16 01:29:08;;;;;;;6.15;5.03;;;14.90;97.80;;;;;;4974587;28;20035;-78
2023/09/16 01:31:34;;;;;;;6.70;5.05;;;15.00;98.30;;;;;;4969376;28;20042;-78
2023/09/16 01:33:59;;;;;;;9.73;5.30;;;14.90;98.30;;;;;;4969315;28;20033;-78
2023/09/16 01:36:25;;;;;;;5.07;4.57;;;14.90;99.10;;;;;;4973710;28;20169;-78
2023/09/16 01:38:53;;;;;;;5.43;4.63;;;14.90;99.50;;;;;;4955999;28;20068;-79
2023/09/16 01:41:19;;;;;;;9.68;4.75;;;14.90;99.90;;;;;;4948744;28;20037;-78
2023/09/16 01:43:45;;;;;;;6.43;4.82;;;15.00;99.90;;;;;;4972145;28;20034;-78
2023/09/16 01:46:10;;;;;;;7.18;4.82;;;15.20;99.90;;;;;;4972513;28;20573;-80
2023/09/16 01:48:36;;;;;;;6.43;4.38;;;15.00;99.90;;;;;;4971302;28;20153;-78
2023/09/16 01:51:02;;;;;;;7.15;5.72;;;15.10;99.90;;;;;;4968758;28;20039;-78
2023/09/16 01:53:27;;;;;;;8.32;5.13;;;15.10;99.90;;;;;;4973830;28;20034;-78
2023/09/16 01:55:53;;;;;;;6.35;4.85;;;15.20;99.90;;;;;;4970804;28;20073;-78
2023/09/16 01:58:18;;;;;;;9.95;5.20;;;15.20;99.90;;;;;;4969469;28;20068;-78
2023/09/16 02:00:44;;;;;;;5.95;4.60;;;15.20;99.90;;;;;;4971627;28;20113;-78
2023/09/16 02:03:11;;;;;;;6.07;5.40;;;15.20;99.90;;;;;;4971299;28;20047;-79
2023/09/16 02:05:36;;;;;;;9.88;4.82;;;15.20;99.90;;;;;;4971529;28;20400;-77
2023/09/16 02:08:02;;;;;;;5.60;4.63;;;15.20;99.90;;;;;;4952166;28;20562;-79
2023/09/16 02:10:28;;;;;;;5.03;4.53;;;15.20;99.90;;;;;;4968007;28;20058;-79
2023/09/16 02:12:53;;;;;;;6.22;4.53;;;15.20;99.90;;;;;;4968431;28;20038;-78
2023/09/16 02:15:19;;;;;;;6.80;5.03;;;15.30;99.90;;;;;;4955577;28;20046;-78
2023/09/16 02:17:45;;;;;;;6.50;4.90;;;15.30;99.90;;;;;;4961955;28;20115;-78
2023/09/16 02:20:11;;;;;;;7.90;5.63;;;15.40;99.90;;;;;;4972839;28;20050;-78
2023/09/16 02:22:37;;;;;;;9.40;4.78;;;15.40;99.90;;;;;;4971573;28;20039;-79
2023/09/16 02:25:02;;;;;;;7.75;4.72;;;15.40;99.90;;;;;;4973916;28;20472;-80
2023/09/16 02:27:28;;;;;;;6.18;5.57;;;15.30;99.90;;;;;;4969536;28;20035;-76
2023/09/16 02:29:53;;;;;;;7.07;4.85;;;15.30;99.90;;;;;;4970685;28;20043;-77
2023/09/16 02:32:19;;;;;;;7.22;5.13;;;15.30;99.90;;;;;;4978160;28;20454;-77
2023/09/16 02:34:44;;;;;;;6.20;4.82;;;15.30;99.90;;;;;;4972890;28;20522;-77
2023/09/16 02:37:10;;;;;;;8.82;5.70;;;15.20;99.90;;;;;;4971614;28;20398;-77
2023/09/16 02:39:36;;;;;;;8.63;5.20;;;15.30;99.90;;;;;;4974582;28;20116;-77
2023/09/16 02:42:01;;;;;;;5.85;5.10;;;15.20;99.90;;;;;;4954439;28;20022;-78
2023/09/16 02:44:29;;;;;;;7.05;5.20;;;15.20;99.90;;;;;;4969774;28;20031;-79
2023/09/16 02:46:54;;;;;;;7.32;5.20;;;15.10;99.90;;;;;;4985768;28;20030;-80
2023/09/16 02:49:20;;;;;;;6.68;4.93;;;15.10;99.90;;;;;;4972156;28;20615;-78
2023/09/16 02:51:45;;;;;;;9.63;4.85;;;15.10;99.90;;;;;;4969836;28;20035;-78
2023/09/16 02:54:11;;;;;;;7.78;5.57;;;15.00;99.90;;;;;;4969420;28;20045;-79
2023/09/16 02:56:36;;;;;;;6.28;5.60;;;15.00;99.90;;;;;;4954220;28;20046;-79
2023/09/16 02:59:02;;;;;;;7.35;5.57;;;15.00;99.90;;;;;;4972132;28;20478;-79
2023/09/16 03:01:29;;;;;;;9.05;5.50;;;14.90;99.90;;;;;;4969397;28;20435;-79
2023/09/16 03:03:54;;;;;;;5.80;4.68;;;14.90;99.90;;;;;;4958033;28;20510;-79
2023/09/16 03:06:21;;;;;;;8.40;5.05;;;14.90;99.90;;;;;;4968420;28;20035;-78
2023/09/16 03:08:48;;;;;;;6.97;5.20;;;14.90;99.90;;;;;;4973390;28;20520;-78
2023/09/16 03:11:14;;;;;;;7.30;5.53;;;14.80;99.90;;;;;;4969303;28;20113;-79
2023/09/16 03:13:39;;;;;;;8.50;5.30;;;14.90;99.90;;;;;;4958094;28;20038;-79
2023/09/16 03:16:21;;;;;;;8.30;5.47;;;14.90;99.90;;;;;;4971183;28;20454;-79
2023/09/16 03:18:48;;;;;;;7.43;5.28;;;14.90;99.90;;;;;;4968709;28;20039;-78
2023/09/16 03:21:15;;;;;;;6.13;5.53;;;14.90;99.90;;;;;;4937771;28;20129;-78
2023/09/16 03:23:41;;;;;;;6.50;5.10;;;14.90;99.90;;;;;;4948188;28;20038;-78
2023/09/16 03:26:07;;;;;;;5.57;5.07;;;14.90;99.90;;;;;;4968609;28;20030;-78
2023/09/16 03:28:33;;;;;;;5.65;5.10;;;14.90;99.90;;;;;;4970490;28;20089;-78
2023/09/16 03:30:58;;;;;;;9.07;5.13;;;14.90;99.90;;;;;;4968581;28;20340;-77
2023/09/16 03:33:24;;;;;;;7.30;5.10;;;14.90;99.90;;;;;;4970188;28;20051;-78
2023/09/16 03:35:49;;;;;;;8.82;5.55;;;14.90;99.90;;;;;;4973926;28;20031;-78
2023/09/16 03:38:18;;;;;;;9.15;5.70;;;14.90;99.90;;;;;;4970248;28;20038;-79
2023/09/16 03:40:44;;;;;;;7.15;5.90;;;14.90;99.90;;;;;;4969035;28;20169;-78
2023/09/16 03:43:09;;;;;;;7.03;6.20;;;14.90;99.90;;;;;;4971707;28;20047;-79
2023/09/16 03:45:35;;;;;;;7.68;5.80;;;14.90;99.90;;;;;;4971942;28;20109;-78
2023/09/16 03:48:00;;;;;;;8.68;6.10;;;14.90;99.90;;;;;;4970036;28;20031;-78
2023/09/16 03:50:26;;;;;;;6.60;5.68;;;14.80;99.90;;;;;;4974779;28;20031;-77
2023/09/16 03:52:52;;;;;;;7.68;6.03;;;14.80;99.90;;;;;;4970211;28;20035;-78
2023/09/16 03:55:18;;;;;;;9.23;5.22;;;14.80;99.90;;;;;;4971270;28;20742;-78
2023/09/16 03:57:43;;;;;;;7.15;5.32;;;14.80;99.90;;;;;;4970564;28;20474;-78
2023/09/16 04:00:10;;;;;;;8.38;6.10;;;14.80;99.90;;;;;;4969559;28;20062;-78
2023/09/16 04:02:38;;;;;;;6.30;5.40;;;14.70;99.90;;;;;;4984472;28;20035;-78
2023/09/16 04:05:04;;;;;;;7.88;6.57;;;14.70;99.90;;;;;;4971616;28;20034;-78
2023/09/16 04:07:30;;;;;;;6.63;5.43;;;14.70;99.90;;;;;;4968062;28;20038;-77
2023/09/16 04:09:55;;;;;;;7.25;6.47;;;14.60;99.90;;;;;;4971741;28;20034;-77
2023/09/16 04:12:21;;;;;;;8.23;6.15;;;14.60;99.90;;;;;;4970341;28;20039;-78
2023/09/16 04:14:46;;;;;;;8.30;5.70;;;14.50;99.90;;;;;;4970137;28;20034;-78
2023/09/16 04:17:12;;;;;;;8.80;6.65;;;14.50;99.90;;;;;;4969062;28;20398;-78
2023/09/16 04:19:38;;;;;;;8.52;6.18;;;14.50;99.90;;;;;;4968730;28;20643;-77
2023/09/16 04:22:03;;;;;;;10.05;5.60;;;14.50;99.90;;;;;;4970958;28;20042;-78
2023/09/16 04:24:29;;;;;;;7.93;6.35;;;14.40;99.90;;;;;;4974327;28;20046;-78
2023/09/16 04:26:54;;;;;;;11.38;6.35;;;14.40;99.90;;;;;;4969415;28;20031;-78
2023/09/16 04:29:20;;;;;;;8.73;6.53;;;14.40;99.90;;;;;;4969961;28;20034;-77
2023/09/16 04:31:45;;;;;;;12.38;6.60;;;14.30;99.90;;;;;;4955481;28;20038;-78
2023/09/16 04:34:11;;;;;;;8.60;6.30;;;14.30;99.90;;;;;;4958137;28;20545;-78
2023/09/16 04:36:38;;;;;;;6.90;6.20;;;14.20;99.90;;;;;;4974635;28;20490;-77
2023/09/16 04:39:04;;;;;;;9.30;6.28;;;14.10;99.90;;;;;;4976118;28;20494;-76
2023/09/16 04:41:31;;;;;;;10.93;6.45;;;14.20;99.90;;;;;;4973953;28;20031;-78
2023/09/16 04:43:57;;;;;;;8.32;6.97;;;14.10;99.90;;;;;;4956561;28;20800;-76
2023/09/16 04:46:23;;;;;;;9.65;6.75;;;14.20;99.90;;;;;;4977563;28;20034;-78
2023/09/16 04:48:48;;;;;;;9.60;6.97;;;14.10;99.90;;;;;;4972240;28;20037;-77
2023/09/16 04:51:14;;;;;;;10.60;7.13;;;14.10;99.90;;;;;;4975171;28;20054;-77
2023/09/16 04:53:39;;;;;;;8.38;6.90;;;14.10;99.90;;;;;;4975440;28;20037;-77
2023/09/16 04:56:11;;;;;;;11.80;7.10;;;14.00;99.90;;;;;;4972035;28;20514;-77
2023/09/16 04:58:36;;;;;;;11.30;6.80;;;14.00;99.90;;;;;;4971831;28;20045;-77
2023/09/16 05:01:05;;;;;;;11.05;7.32;;;13.90;99.90;;;;;;4976239;28;20035;-78
2023/09/16 05:03:31;;;;;;;8.93;7.50;;;13.90;99.90;;;;;;4959458;28;20046;-77
2023/09/16 05:05:56;;;;;;;8.88;7.70;;;13.90;99.90;;;;;;4989498;28;20093;-77
2023/09/16 05:08:22;;;;;;;7.97;7.03;;;13.80;99.90;;;;;;4957195;28;20575;-78
2023/09/16 05:10:57;;;;;;;12.93;7.70;;;13.90;99.90;;;;;;4976234;28;20118;-78
2023/09/16 05:13:23;;;;;;;7.70;6.88;;;13.90;99.90;;;;;;4938301;28;20077;-78
2023/09/16 05:15:49;;;;;;;7.72;6.82;;;13.80;99.90;;;;;;4976312;28;20054;-78
2023/09/16 05:18:15;;;;;;;9.07;7.20;;;13.80;99.90;;;;;;4975831;28;20483;-78
2023/09/16 05:20:41;;;;;;;14.18;8.13;;;13.80;99.90;;;;;;4973727;28;20033;-78
2023/09/16 05:23:06;;;;;;;9.68;7.75;;;13.70;99.90;;;;;;4972004;28;20061;-77
2023/09/16 05:25:32;;;;;;;11.05;7.68;;;13.70;99.90;;;;;;4973633;28;20034;-78
2023/09/16 05:27:57;;;;;;;10.50;7.38;;;13.80;99.90;;;;;;4972432;28;20034;-77
2023/09/16 05:30:23;;;;;;;11.57;7.85;;;13.80;99.90;;;;;;4971958;28;20034;-78
2023/09/16 05:32:49;;;;;;;12.88;7.70;;;13.70;99.90;;;;;;4974869;28;20507;-77
2023/09/16 05:35:14;;;;;;;12.60;8.23;;;13.80;99.90;;;;;;4973212;28;20035;-77
2023/09/16 05:37:40;;;;;;;11.07;7.82;;;13.80;99.90;;;;;;4974660;28;20054;-78
2023/09/16 05:40:07;;;;;;;10.65;8.00;;;13.90;99.90;;;;;;4973491;28;20052;-77
2023/09/16 05:42:34;;;;;;;11.13;7.60;;;13.80;99.90;;;;;;4952088;28;20038;-79
2023/09/16 05:45:01;;;;;;;15.95;8.10;;;13.70;99.90;;;;;;4961422;28;20039;-78
2023/09/16 05:47:30;;;;;;;13.43;8.88;;;13.80;99.90;;;;;;4963673;28;20039;-77
2023/09/16 05:49:56;;;;;;;10.43;8.18;;;13.80;99.90;;;;;;4973094;28;20065;-78
2023/09/16 05:52:22;;;;;;;9.15;8.07;;;13.80;99.90;;;;;;4953459;28;20053;-78
2023/09/16 05:54:47;;;;;;;11.52;8.93;;;13.80;99.90;;;;;;4972172;28;20050;-79
2023/09/16 05:57:13;;;;;;;9.52;7.75;;;13.80;99.90;;;;;;4974233;28;20106;-79
2023/09/16 05:59:39;;;;;;;11.57;8.82;;;13.80;99.90;;;;;;4974052;28;20065;-78
2023/09/16 06:02:05;;;;;;;14.38;9.88;;;14.00;99.90;;;;;;4971949;28;20038;-78
2023/09/16 06:04:30;;;;;;;11.63;7.50;;;14.00;99.90;;;;;;4625124;28;9999661;-79
2023/09/16 06:06:56;;;;;;;13.80;10.15;;;14.10;99.90;;;;;;4626555;28;10000185;-79
2023/09/16 06:09:22;;;;;;;12.73;10.18;;;14.10;99.90;;;;;;4974675;28;20129;-78
2023/09/16 06:11:47;;;;;;;14.82;10.40;;;14.10;99.90;;;;;;4973495;28;20058;-78
2023/09/16 06:14:13;;;;;;;9.25;7.53;;;14.20;99.90;;;;;;4973082;28;20046;-78
2023/09/16 06:16:38;;;;;;;17.17;11.32;;;14.30;99.90;;;;;;4972183;28;20039;-79
2023/09/16 06:19:04;;;;;;;17.02;11.60;;;14.30;99.90;;;;;;4970632;28;20391;-78
2023/09/16 06:21:30;;;;;;;19.35;11.30;;;14.50;99.90;;;;;;4956076;28;20451;-79
2023/09/16 06:23:55;;;;;;;16.90;11.60;;;14.40;99.90;;;;;;4991472;28;20065;-78
2023/09/16 06:26:21;;;;;;;15.40;12.43;;;14.50;99.90;;;;;;4975372;28;20042;-78
2023/09/16 06:28:47;;;;;;;16.65;11.77;;;14.50;99.90;;;;;;4953745;28;20030;-78
2023/09/16 06:31:12;;;;;;;17.50;11.50;;;14.60;99.90;;;;;;4973380;28;20090;-78
2023/09/16 06:33:38;;;;;;;20.80;12.27;;;14.60;99.90;;;;;;4973490;28;20486;-78
2023/09/16 06:36:03;;;;;;;16.88;12.13;;;14.80;99.90;;;;;;4975427;28;20549;-79
2023/09/16 06:38:29;;;;;;;17.27;12.18;;;14.80;99.90;;;;;;4957582;28;20062;-79
2023/09/16 06:40:55;;;;;;;15.98;11.23;;;14.90;99.90;;;;;;4953299;28;20030;-78
2023/09/16 06:43:21;;;;;;;16.02;10.23;;;15.10;99.90;;;;;;4986685;28;20039;-78
2023/09/16 06:45:49;;;;;;;22.10;9.88;;;15.10;99.90;;;;;;4969138;28;20499;-78
2023/09/16 06:48:15;;;;;;;12.52;9.48;;;15.20;99.90;;;;;;4968534;28;20026;-78
2023/09/16 06:50:40;;;;;;;12.85;9.43;;;15.30;99.90;;;;;;4973645;28;20368;-78
2023/09/16 06:53:06;;;;;;;12.38;8.98;;;15.40;99.90;;;;;;4973767;28;20031;-79
2023/09/16 06:55:32;;;;;;;11.20;8.88;;;15.60;99.90;;;;;;4974163;28;20118;-79
2023/09/16 06:57:57;;;;;;;10.02;8.48;;;15.60;99.90;;;;;;4970954;28;20066;-79
2023/09/16 07:00:23;;;;;;;12.18;8.38;;;15.80;99.90;;;;;;4973008;28;20038;-78
2023/09/16 07:02:48;;;;;;;9.43;8.00;;;15.90;99.90;;;;;;4973069;28;20608;-78
2023/09/16 07:05:14;;;;;;;10.52;8.77;;;16.00;99.90;;;;;;4970644;28;20031;-78
2023/09/16 07:07:41;;;;;;;10.18;8.45;;;16.00;99.90;;;;;;4969335;28;20641;-79
2023/09/16 07:10:07;;;;;;;9.60;7.75;;;16.10;99.90;;;;;;4975420;28;20081;-78
2023/09/16 07:12:32;;;;;;;10.80;6.82;;;16.20;99.90;;;;;;4972847;28;20439;-78
2023/09/16 07:14:58;;;;;;;11.35;7.00;;;16.40;99.90;;;;;;4955926;28;20045;-78
2023/09/16 07:17:23;;;;;;;6.32;4.40;;;16.50;99.90;;;;;;4975948;28;20035;-78
2023/09/16 07:19:49;;;;;;;10.98;6.80;;;16.70;99.90;;;;;;4970160;28;20033;-78
2023/09/16 07:22:15;;;;;;;10.27;6.45;;;16.70;99.90;;;;;;4968891;28;20030;-78
2023/09/16 07:24:40;;;;;;;6.30;4.25;;;16.80;99.90;;;;;;4972622;28;20035;-78
2023/09/16 07:27:06;;;;;;;13.23;6.22;;;17.00;99.90;;;;;;4970376;28;20042;-79
2023/09/16 07:29:31;;;;;;;7.15;6.03;;;17.20;99.90;;;;;;4966780;28;22583;-78
2023/09/16 07:31:57;;;;;;;9.65;6.25;;;17.30;99.90;;;;;;4971377;28;20038;-78
2023/09/16 07:34:22;;;;;;;9.88;7.07;;;17.20;99.90;;;;;;4972223;28;20034;-78
2023/09/16 07:36:48;;;;;;;9.27;5.55;;;17.30;99.90;;;;;;4972707;28;20034;-78
2023/09/16 07:39:14;;;;;;;9.82;4.95;;;17.40;99.90;;;;;;4968726;28;20035;-78
2023/09/16 07:41:40;;;;;;;6.45;4.75;;;17.50;99.90;;;;;;4954272;28;20461;-78
2023/09/16 07:44:06;;;;;;;5.55;4.38;;;17.80;99.90;;;;;;4971244;28;20072;-78
2023/09/16 07:46:31;;;;;;;6.72;5.63;;;17.70;99.90;;;;;;4972508;28;20127;-79
2023/09/16 07:48:57;;;;;;;8.70;5.75;;;18.00;99.90;;;;;;4972289;28;20504;-78
2023/09/16 07:51:22;;;;;;;8.93;5.90;;;18.20;99.90;;;;;;4970825;28;20129;-78
2023/09/16 07:53:48;;;;;;;8.30;6.25;;;18.30;99.90;;;;;;4971117;28;20049;-78
2023/09/16 07:56:18;;;;;;;9.13;5.30;;;18.20;99.90;;;;;;4969575;28;20122;-79
2023/09/16 07:58:43;;;;;;;11.25;5.72;;;18.10;99.90;;;;;;4971809;28;20037;-77
2023/09/16 08:01:09;;;;;;;12.32;5.78;;;18.30;99.90;;;;;;4968402;28;20043;-77
2023/09/16 08:03:37;;;;;;;6.93;5.13;;;18.40;99.90;;;;;;4970841;28;20083;-78
2023/09/16 08:06:03;;;;;;;6.18;4.88;;;18.40;99.90;;;;;;4971333;28;20050;-77
2023/09/16 08:08:29;;;;;;;6.22;5.07;;;18.60;99.90;;;;;;4968850;28;20054;-78
2023/09/16 08:10:54;;;;;;;6.22;4.78;;;18.70;99.90;;;;;;4954173;28;20419;-79
2023/09/16 08:13:20;;;;;;;11.07;5.07;;;18.60;99.90;;;;;;4969396;28;20431;-78
2023/09/16 08:15:46;;;;;;;9.68;5.30;;;19.00;99.90;;;;;;4969743;28;20112;-77
2023/09/16 08:18:11;;;;;;;6.07;5.03;;;18.90;99.90;;;;;;4953638;28;20495;-78
2023/09/16 08:20:37;;;;;;;6.18;4.65;;;19.10;99.90;;;;;;4956593;28;20030;-77
2023/09/16 08:23:02;;;;;;;6.43;4.93;;;19.00;99.90;;;;;;4971032;28;21364;-77
2023/09/16 08:25:28;;;;;;;7.07;5.03;;;19.20;99.90;;;;;;4972038;28;20492;-78
2023/09/16 08:27:54;;;;;;;6.15;4.35;;;19.40;99.90;;;;;;4974707;28;20094;-77
2023/09/16 08:30:21;;;;;;;6.88;4.45;;;19.50;99.90;;;;;;4968400;28;20630;-78
2023/09/16 08:32:47;;;;;;;6.60;4.20;;;19.40;99.90;;;;;;4955700;28;20033;-78
2023/09/16 08:35:12;;;;;;;5.55;4.50;;;19.50;99.90;;;;;;4972288;28;20495;-77
2023/09/16 08:37:38;;;;;;;8.43;4.63;;;19.90;99.90;;;;;;4968176;28;20113;-77
2023/09/16 08:40:04;;;;;;;5.47;3.40;;;20.30;99.90;;;;;;4967853;28;20538;-78
2023/09/16 08:42:35;;;;;;;6.47;3.30;;;20.90;99.90;;;;;;4987623;28;20038;-79
2023/09/16 08:45:04;;;;;;;6.05;4.10;;;21.10;99.90;;;;;;4954280;28;20090;-77
2023/09/16 08:47:34;;;;;;;6.88;4.43;;;21.40;99.90;;;;;;4972528;28;20402;-77
2023/09/16 08:50:07;;;;;;;7.05;3.53;;;21.40;99.90;;;;;;4965311;28;20045;-78
2023/09/16 08:52:54;;;;;;;4.10;3.20;;;22.00;99.90;;;;;;4971720;28;20038;-78
2023/09/16 08:55:20;;;;;;;4.10;3.70;;;21.80;99.90;;;;;;4968141;28;20042;-78
2023/09/16 08:57:56;;;;;;;4.88;3.78;;;21.30;99.90;;;;;;4968893;28;20042;-78
2023/09/16 09:00:21;;;;;;;3.53;3.20;;;21.40;99.90;;;;;;4970289;28;20408;-78
2023/09/16 09:02:48;;;;;;;6.22;4.32;;;21.70;99.90;;;;;;4956254;28;20061;-79
2023/09/16 09:05:13;;;;;;;5.90;4.30;;;21.90;99.90;;;;;;4952531;28;20034;-78
2023/09/16 09:07:40;;;;;;;3.90;3.60;;;22.20;99.90;;;;;;4971157;28;20113;-78
2023/09/16 09:10:06;;;;;;;4.03;3.63;;;22.10;99.90;;;;;;4970792;28;20085;-79
2023/09/16 09:12:34;;;;;;;6.47;4.53;;;22.40;99.90;;;;;;4965224;28;20042;-78
2023/09/16 09:15:04;;;;;;;5.13;3.85;;;22.90;99.90;;;;;;4952298;28;20415;-77
2023/09/16 09:17:36;;;;;;;3.83;3.13;;;22.60;99.90;;;;;;4952124;28;20122;-79
2023/09/16 09:20:03;;;;;;;4.72;3.83;;;23.10;99.90;;;;;;4969094;28;20022;-79
2023/09/16 09:22:28;;;;;;;5.70;4.47;;;23.20;99.90;;;;;;4970535;28;20046;-79
2023/09/16 09:24:55;;;;;;;3.72;3.22;;;23.20;99.90;;;;;;4974717;28;20391;-79
2023/09/16 09:27:20;;;;;;;7.72;4.90;;;23.30;99.90;;;;;;4973030;28;20038;-79
2023/09/16 09:29:46;;;;;;;4.82;4.03;;;23.20;99.90;;;;;;4958393;28;20491;-78
2023/09/16 09:32:18;;;;;;;4.90;4.40;;;23.30;99.90;;;;;;4973959;28;20043;-78
2023/09/16 09:34:43;;;;;;;5.82;5.05;;;23.50;99.90;;;;;;4972652;28;20057;-78
2023/09/16 09:37:16;;;;;;;10.10;4.70;;;23.00;99.90;;;;;;4973951;28;20454;-78
2023/09/16 09:39:42;;;;;;;6.35;5.25;;;22.40;99.90;;;;;;4973210;28;20046;-78
2023/09/16 09:42:07;;;;;;;7.50;5.18;;;22.20;99.90;;;;;;4989925;28;20038;-78
2023/09/16 09:44:36;;;;;;;4.95;4.30;;;22.30;99.90;;;;;;4981541;28;20031;-79
2023/09/16 09:47:01;;;;;;;4.70;3.72;;;22.30;99.90;;;;;;4971074;28;20499;-78
2023/09/16 09:49:27;;;;;;;3.72;3.25;;;23.40;99.90;;;;;;4971686;28;20050;-79
2023/09/16 09:51:55;;;;;;;3.40;3.10;;;24.30;99.90;;;;;;4957227;28;20035;-80
2023/09/16 09:54:21;;;;;;;7.47;4.85;;;24.40;99.90;;;;;;4956396;28;20023;-80
2023/09/16 09:56:48;;;;;;;5.55;4.18;;;24.90;99.30;;;;;;4975841;28;20113;-78
2023/09/16 09:59:14;;;;;;;4.75;4.32;;;24.20;99.90;;;;;;4975649;28;20073;-80
2023/09/16 10:01:41;;;;;;;3.92;3.25;;;24.10;99.00;;;;;;4971780;28;20505;-79
2023/09/16 10:04:06;;;;;;;7.55;4.47;;;24.20;99.70;;;;;;4970034;28;20499;-79
2023/09/16 10:06:32;;;;;;;3.67;3.38;;;24.90;99.90;;;;;;4971649;28;20025;-79
2023/09/16 10:08:57;;;;;;;3.67;3.13;;;26.00;97.30;;;;;;4974137;28;20030;-79
2023/09/16 10:11:27;;;;;;;7.15;3.97;;;26.00;97.00;;;;;;4969921;28;20042;-78
2023/09/16 10:13:53;;;;;;;4.45;4.03;;;25.90;97.70;;;;;;4970997;28;20039;-79
2023/09/16 10:16:18;;;;;;;3.53;3.22;;;25.60;98.90;;;;;;4972384;28;20039;-78
2023/09/16 10:18:44;;;;;;;3.75;3.05;;;25.80;97.90;;;;;;4978253;28;20023;-79
2023/09/16 10:21:12;;;;;;;5.65;3.20;;;25.60;98.40;;;;;;4956927;28;20046;-78
2023/09/16 10:23:38;;;;;;;3.08;2.75;;;26.20;96.50;;;;;;4968692;28;20030;-78
2023/09/16 10:26:04;;;;;;;4.72;4.25;;;26.30;96.10;;;;;;4970696;28;20046;-79
2023/09/16 10:28:32;;;;;;;3.75;3.35;;;26.10;99.00;;;;;;4970458;28;20042;-80
2023/09/16 10:30:58;;;;;;;5.45;3.88;;;25.80;99.60;;;;;;4961712;28;20046;-79
2023/09/16 10:33:23;;;;;;;5.72;4.45;;;25.50;99.90;;;;;;4954052;28;20030;-80
2023/09/16 10:35:49;;;;;;;4.72;4.25;;;25.60;99.90;;;;;;4958676;28;20042;-80
2023/09/16 10:38:15;;;;;;;6.47;4.68;;;25.50;99.90;;;;;;4976459;28;20037;-79
2023/09/16 10:40:40;;;;;;;6.43;4.95;;;25.60;99.90;;;;;;4972837;28;20027;-79
2023/09/16 10:43:06;;;;;;;6.05;4.57;;;25.80;99.90;;;;;;4973152;28;20031;-80
2023/09/16 10:45:31;;;;;;;5.88;5.10;;;25.90;99.90;;;;;;4970858;28;20554;-79
2023/09/16 10:47:59;;;;;;;4.40;4.00;;;25.80;99.90;;;;;;4972781;28;20121;-79
2023/09/16 10:50:25;;;;;;;3.75;2.88;;;26.10;98.90;;;;;;4973974;28;20113;-79
2023/09/16 10:53:10;;;;;;;3.83;3.50;;;26.90;96.80;;;;;;4977526;28;20126;-80
2023/09/16 10:55:58;;;;;;;3.30;2.80;;;27.70;94.80;;;;;;4970276;28;20042;-78
2023/09/16 10:58:46;;;;;;;3.55;3.25;;;27.50;95.00;;;;;;4971539;28;20035;-79
2023/09/16 11:01:16;;;;;;;5.00;4.60;;;27.50;95.00;;;;;;4957728;28;20046;-78
2023/09/16 11:03:46;;;;;;;6.75;5.32;;;27.00;98.60;;;;;;4955464;28;20398;-79
2023/09/16 11:06:12;;;;;;;6.10;5.35;;;26.60;98.50;;;;;;4972770;28;20502;-78
2023/09/16 11:08:37;;;;;;;7.50;6.00;;;26.30;99.60;;;;;;4977094;28;20035;-78
2023/09/16 11:11:03;;;;;;;5.53;4.80;;;26.20;99.90;;;;;;4954733;28;20506;-78
2023/09/16 11:13:28;;;;;;;8.85;5.35;;;26.20;99.90;;;;;;4976175;28;20096;-79
2023/09/16 11:16:00;;;;;;;4.05;3.65;;;26.30;99.90;;;;;;4975093;28;20031;-79
2023/09/16 11:18:26;;;;;;;5.63;4.50;;;27.20;96.50;;;;;;4969009;28;20507;-78
2023/09/16 11:20:52;;;;;;;4.40;3.03;;;27.00;98.80;;;;;;4970792;28;20125;-78
2023/09/16 11:23:18;;;;;;;4.65;4.18;;;27.40;96.80;;;;;;4969389;28;20126;-78
2023/09/16 11:25:43;;;;;;;6.28;4.78;;;27.70;96.00;;;;;;4974359;28;20042;-78
2023/09/16 11:28:13;;;;;;;4.88;4.38;;;27.60;96.00;;;;;;4969802;28;20038;-79
2023/09/16 11:30:39;;;;;;;3.92;3.60;;;28.20;94.60;;;;;;4955992;28;20128;-79
2023/09/16 11:33:24;;;;;;;3.17;2.95;;;29.00;93.40;;;;;;4957497;28;20507;-79
2023/09/16 11:36:12;;;;;;;4.68;3.90;;;29.20;92.60;;;;;;4974784;28;20526;-78
2023/09/16 11:39:15;;;;;;;5.57;3.63;;;29.20;92.70;;;;;;4954376;28;20066;-78
2023/09/16 11:41:40;;;;;;;4.82;4.25;;;29.20;92.40;;;;;;4969160;28;20138;-78
2023/09/16 11:44:06;;;;;;;3.00;2.80;;;30.10;90.70;;;;;;4970836;28;20030;-78
2023/09/16 11:46:31;;;;;;;4.15;3.83;;;29.50;91.60;;;;;;4954305;28;20490;-79
2023/09/16 11:49:04;;;;;;;3.88;3.38;;;29.30;92.40;;;;;;4976669;28;20050;-78
2023/09/16 11:51:30;;;;;;;5.60;5.10;;;28.80;93.10;;;;;;4954393;28;20034;-79
2023/09/16 11:53:56;;;;;;;5.95;5.45;;;28.30;95.20;;;;;;4969667;28;20522;-78
2023/09/16 11:56:23;;;;;;;5.50;4.28;;;28.40;93.60;;;;;;4967022;28;20031;-79
2023/09/16 11:58:49;;;;;;;6.22;5.00;;;27.80;94.10;;;;;;4966525;28;20043;-78
2023/09/16 12:01:20;;;;;;;5.50;5.00;;;27.90;95.10;;;;;;4967811;28;20051;-78
2023/09/16 12:03:45;;;;;;;4.47;4.07;;;28.00;94.50;;;;;;4971421;28;20113;-78
2023/09/16 12:06:11;;;;;;;4.60;3.58;;;28.40;94.40;;;;;;4966136;28;20680;-78
2023/09/16 12:08:40;;;;;;;6.20;3.95;;;28.70;94.10;;;;;;4940116;28;20117;-78
2023/09/16 12:11:06;;;;;;;4.65;3.60;;;30.90;90.40;;;;;;4970342;28;20035;-78
2023/09/16 12:13:31;;;;;;;3.47;3.17;;;32.00;86.40;;;;;;4969140;28;20038;-77
2023/09/16 12:16:00;;;;;;;3.35;3.05;;;32.20;85.40;;;;;;4966924;28;20027;-78
2023/09/16 12:18:26;;;;;;;4.32;3.92;;;31.90;85.00;;;;;;4951516;28;21294;-77
2023/09/16 12:20:54;;;;;;;5.03;4.53;;;30.60;89.70;;;;;;4968267;28;20038;-78
2023/09/16 12:23:25;;;;;;;5.70;5.20;;;29.80;91.80;;;;;;4967159;28;20038;-79
2023/09/16 12:25:50;;;;;;;4.07;3.72;;;28.60;93.60;;;;;;4967111;28;20038;-77
2023/09/16 12:28:19;;;;;;;4.38;3.97;;;29.30;92.30;;;;;;4965158;28;20038;-79
2023/09/16 12:30:47;;;;;;;4.95;4.55;;;29.80;91.30;;;;;;4269045;28;10000620;-77
2023/09/16 12:33:13;;;;;;;5.40;4.65;;;29.40;92.10;;;;;;4951622;28;20133;-78
2023/09/16 12:35:39;;;;;;;5.20;4.68;;;28.80;93.70;;;;;;4969175;28;20062;-78
2023/09/16 12:38:05;;;;;;;6.07;4.95;;;28.60;94.60;;;;;;4966339;28;20034;-78
2023/09/16 12:40:31;;;;;;;6.13;4.95;;;28.70;94.50;;;;;;4955039;28;20458;-78